sensor_id;sensor_type;location;lat;lon;timestamp;P1;durP1;ratioP1;P2;durP2;ratioP2
68284;SDS011;55114;52.052;5.238;2023-03-17T00:01:07;5.75;;;2.20;;
68284;SDS011;55114;52.052;5.238;2023-03-17T00:03:36;5.18;;;2.00;;
68284;SDS011;55114;52.052;5.238;2023-03-17T00:06:04;7.40;;;2.30;;
68284;SDS011;55114;52.052;5.238;2023-03-17T00:08:32;5.03;;;2.33;;
68284;SDS011;55114;52.052;5.238;2023-03-17T00:11:00;5.63;;;2.00;;
68284;SDS011;55114;52.052;5.238;2023-03-17T00:13:28;5.32;;;2.10;;
68284;SDS011;55114;52.052;5.238;2023-03-17T00:15:59;4.72;;;2.10;;
68284;SDS011;55114;52.052;5.238;2023-03-17T00:18:27;4.95;;;2.33;;
68284;SDS011;55114;52.052;5.238;2023-03-17T00:20:56;4.78;;;2.08;;
68284;SDS011;55114;52.052;5.238;2023-03-17T00:23:25;4.55;;;2.00;;
68284;SDS011;55114;52.052;5.238;2023-03-17T00:25:52;5.22;;;2.08;;
68284;SDS011;55114;52.052;5.238;2023-03-17T00:28:23;5.30;;;2.05;;
68284;SDS011;55114;52.052;5.238;2023-03-17T00:30:52;5.10;;;2.28;;
68284;SDS011;55114;52.052;5.238;2023-03-17T00:33:30;6.53;;;2.20;;
68284;SDS011;55114;52.052;5.238;2023-03-17T00:35:58;5.82;;;2.38;;
68284;SDS011;55114;52.052;5.238;2023-03-17T00:38:26;4.70;;;1.98;;
68284;SDS011;55114;52.052;5.238;2023-03-17T00:40:55;6.93;;;2.30;;
68284;SDS011;55114;52.052;5.238;2023-03-17T00:43:22;5.80;;;2.25;;
68284;SDS011;55114;52.052;5.238;2023-03-17T00:45:49;5.55;;;2.25;;
68284;SDS011;55114;52.052;5.238;2023-03-17T00:48:18;4.68;;;2.20;;
68284;SDS011;55114;52.052;5.238;2023-03-17T00:50:47;4.25;;;2.20;;
68284;SDS011;55114;52.052;5.238;2023-03-17T00:53:16;5.32;;;2.28;;
68284;SDS011;55114;52.052;5.238;2023-03-17T00:55:47;5.22;;;2.10;;
68284;SDS011;55114;52.052;5.238;2023-03-17T00:58:25;5.63;;;2.33;;
68284;SDS011;55114;52.052;5.238;2023-03-17T01:00:54;4.10;;;2.03;;
68284;SDS011;55114;52.052;5.238;2023-03-17T01:03:21;5.53;;;2.08;;
68284;SDS011;55114;52.052;5.238;2023-03-17T01:05:49;6.05;;;2.20;;
68284;SDS011;55114;52.052;5.238;2023-03-17T01:08:18;5.63;;;2.40;;
68284;SDS011;55114;52.052;5.238;2023-03-17T01:10:46;4.63;;;2.10;;
68284;SDS011;55114;52.052;5.238;2023-03-17T01:13:13;7.13;;;2.50;;
68284;SDS011;55114;52.052;5.238;2023-03-17T01:15:41;6.65;;;2.63;;
68284;SDS011;55114;52.052;5.238;2023-03-17T01:18:11;5.20;;;2.55;;
68284;SDS011;55114;52.052;5.238;2023-03-17T01:20:38;5.18;;;2.00;;
68284;SDS011;55114;52.052;5.238;2023-03-17T01:23:08;5.32;;;2.28;;
68284;SDS011;55114;52.052;5.238;2023-03-17T01:25:36;5.13;;;2.30;;
68284;SDS011;55114;52.052;5.238;2023-03-17T01:28:04;4.95;;;2.38;;
68284;SDS011;55114;52.052;5.238;2023-03-17T01:30:36;6.57;;;2.60;;
68284;SDS011;55114;52.052;5.238;2023-03-17T01:33:05;5.93;;;2.22;;
68284;SDS011;55114;52.052;5.238;2023-03-17T01:35:33;5.15;;;2.35;;
68284;SDS011;55114;52.052;5.238;2023-03-17T01:38:02;5.07;;;2.20;;
68284;SDS011;55114;52.052;5.238;2023-03-17T01:40:36;5.45;;;2.20;;
68284;SDS011;55114;52.052;5.238;2023-03-17T01:48:21;4.70;;;2.22;;
68284;SDS011;55114;52.052;5.238;2023-03-17T01:50:48;5.78;;;2.40;;
68284;SDS011;55114;52.052;5.238;2023-03-17T01:53:17;5.78;;;2.13;;
68284;SDS011;55114;52.052;5.238;2023-03-17T01:55:45;7.80;;;2.55;;
68284;SDS011;55114;52.052;5.238;2023-03-17T01:58:13;6.15;;;2.25;;
68284;SDS011;55114;52.052;5.238;2023-03-17T02:00:42;5.50;;;2.30;;
68284;SDS011;55114;52.052;5.238;2023-03-17T02:03:09;5.82;;;2.28;;
68284;SDS011;55114;52.052;5.238;2023-03-17T02:05:37;5.97;;;2.35;;
68284;SDS011;55114;52.052;5.238;2023-03-17T02:08:12;5.15;;;2.10;;
68284;SDS011;55114;52.052;5.238;2023-03-17T02:10:39;6.50;;;2.40;;
68284;SDS011;55114;52.052;5.238;2023-03-17T02:13:08;5.25;;;2.38;;
68284;SDS011;55114;52.052;5.238;2023-03-17T02:15:37;4.97;;;2.30;;
68284;SDS011;55114;52.052;5.238;2023-03-17T02:18:05;5.18;;;2.10;;
68284;SDS011;55114;52.052;5.238;2023-03-17T02:23:00;5.95;;;2.40;;
68284;SDS011;55114;52.052;5.238;2023-03-17T02:25:29;5.18;;;2.20;;
68284;SDS011;55114;52.052;5.238;2023-03-17T02:27:58;5.38;;;2.00;;
68284;SDS011;55114;52.052;5.238;2023-03-17T02:30:26;6.15;;;2.58;;
68284;SDS011;55114;52.052;5.238;2023-03-17T02:32:54;5.57;;;2.20;;
68284;SDS011;55114;52.052;5.238;2023-03-17T02:35:22;5.22;;;2.05;;
68284;SDS011;55114;52.052;5.238;2023-03-17T02:37:49;6.47;;;2.22;;
68284;SDS011;55114;52.052;5.238;2023-03-17T02:40:16;5.80;;;2.30;;
68284;SDS011;55114;52.052;5.238;2023-03-17T02:42:44;6.68;;;2.47;;
68284;SDS011;55114;52.052;5.238;2023-03-17T02:45:12;5.50;;;2.20;;
68284;SDS011;55114;52.052;5.238;2023-03-17T02:47:40;5.20;;;2.35;;
68284;SDS011;55114;52.052;5.238;2023-03-17T02:50:08;6.30;;;2.22;;
68284;SDS011;55114;52.052;5.238;2023-03-17T02:52:43;6.45;;;2.30;;
68284;SDS011;55114;52.052;5.238;2023-03-17T02:55:13;6.55;;;2.55;;
68284;SDS011;55114;52.052;5.238;2023-03-17T02:57:40;5.60;;;2.30;;
68284;SDS011;55114;52.052;5.238;2023-03-17T03:00:08;5.45;;;2.05;;
68284;SDS011;55114;52.052;5.238;2023-03-17T03:02:36;5.30;;;2.15;;
68284;SDS011;55114;52.052;5.238;2023-03-17T03:05:04;5.05;;;2.20;;
68284;SDS011;55114;52.052;5.238;2023-03-17T03:07:32;5.00;;;2.38;;
68284;SDS011;55114;52.052;5.238;2023-03-17T03:10:00;4.88;;;2.10;;
68284;SDS011;55114;52.052;5.238;2023-03-17T03:12:28;5.15;;;2.00;;
68284;SDS011;55114;52.052;5.238;2023-03-17T03:14:55;6.65;;;2.40;;
68284;SDS011;55114;52.052;5.238;2023-03-17T03:17:24;5.03;;;2.00;;
68284;SDS011;55114;52.052;5.238;2023-03-17T03:19:51;5.45;;;2.40;;
68284;SDS011;55114;52.052;5.238;2023-03-17T03:22:21;7.05;;;2.40;;
68284;SDS011;55114;52.052;5.238;2023-03-17T03:24:48;6.40;;;1.92;;
68284;SDS011;55114;52.052;5.238;2023-03-17T03:27:16;6.68;;;2.60;;
68284;SDS011;55114;52.052;5.238;2023-03-17T03:29:43;4.88;;;2.30;;
68284;SDS011;55114;52.052;5.238;2023-03-17T03:32:11;4.90;;;2.20;;
68284;SDS011;55114;52.052;5.238;2023-03-17T03:34:39;5.20;;;2.05;;
68284;SDS011;55114;52.052;5.238;2023-03-17T03:37:06;5.72;;;2.15;;
68284;SDS011;55114;52.052;5.238;2023-03-17T03:39:34;5.47;;;2.42;;
68284;SDS011;55114;52.052;5.238;2023-03-17T03:42:02;5.68;;;2.13;;
68284;SDS011;55114;52.052;5.238;2023-03-17T03:44:30;5.35;;;2.28;;
68284;SDS011;55114;52.052;5.238;2023-03-17T03:46:57;6.68;;;2.10;;
68284;SDS011;55114;52.052;5.238;2023-03-17T03:49:24;5.60;;;2.28;;
68284;SDS011;55114;52.052;5.238;2023-03-17T03:51:54;8.05;;;3.00;;
68284;SDS011;55114;52.052;5.238;2023-03-17T03:54:22;6.00;;;2.42;;
68284;SDS011;55114;52.052;5.238;2023-03-17T03:56:49;5.63;;;2.42;;
68284;SDS011;55114;52.052;5.238;2023-03-17T03:59:16;4.53;;;2.00;;
68284;SDS011;55114;52.052;5.238;2023-03-17T04:01:44;4.78;;;1.90;;
68284;SDS011;55114;52.052;5.238;2023-03-17T04:04:11;5.57;;;2.10;;
68284;SDS011;55114;52.052;5.238;2023-03-17T04:06:39;5.55;;;1.88;;
68284;SDS011;55114;52.052;5.238;2023-03-17T04:09:06;5.15;;;2.03;;
68284;SDS011;55114;52.052;5.238;2023-03-17T04:11:34;6.22;;;2.50;;
68284;SDS011;55114;52.052;5.238;2023-03-17T04:14:02;5.50;;;1.92;;
68284;SDS011;55114;52.052;5.238;2023-03-17T04:16:29;4.90;;;2.00;;
68284;SDS011;55114;52.052;5.238;2023-03-17T04:18:57;4.75;;;2.13;;
68284;SDS011;55114;52.052;5.238;2023-03-17T04:21:24;5.68;;;2.20;;
68284;SDS011;55114;52.052;5.238;2023-03-17T04:23:51;5.40;;;1.90;;
68284;SDS011;55114;52.052;5.238;2023-03-17T04:26:19;5.25;;;2.35;;
68284;SDS011;55114;52.052;5.238;2023-03-17T04:28:48;6.22;;;1.92;;
68284;SDS011;55114;52.052;5.238;2023-03-17T04:31:15;5.55;;;2.10;;
68284;SDS011;55114;52.052;5.238;2023-03-17T04:33:43;5.25;;;2.00;;
68284;SDS011;55114;52.052;5.238;2023-03-17T04:36:20;4.55;;;2.10;;
68284;SDS011;55114;52.052;5.238;2023-03-17T04:38:48;5.88;;;2.00;;
68284;SDS011;55114;52.052;5.238;2023-03-17T04:41:15;6.00;;;1.90;;
68284;SDS011;55114;52.052;5.238;2023-03-17T04:43:43;6.50;;;1.95;;
68284;SDS011;55114;52.052;5.238;2023-03-17T04:46:11;5.10;;;2.30;;
68284;SDS011;55114;52.052;5.238;2023-03-17T04:48:39;4.28;;;1.90;;
68284;SDS011;55114;52.052;5.238;2023-03-17T04:51:06;6.97;;;2.03;;
68284;SDS011;55114;52.052;5.238;2023-03-17T04:53:37;5.28;;;2.22;;
68284;SDS011;55114;52.052;5.238;2023-03-17T04:56:04;4.82;;;1.80;;
68284;SDS011;55114;52.052;5.238;2023-03-17T04:58:31;5.70;;;1.90;;
68284;SDS011;55114;52.052;5.238;2023-03-17T05:00:59;4.55;;;2.00;;
68284;SDS011;55114;52.052;5.238;2023-03-17T05:03:28;5.05;;;1.85;;
68284;SDS011;55114;52.052;5.238;2023-03-17T05:05:56;4.95;;;2.00;;
68284;SDS011;55114;52.052;5.238;2023-03-17T05:08:24;4.45;;;1.83;;
68284;SDS011;55114;52.052;5.238;2023-03-17T05:10:54;4.78;;;2.20;;
68284;SDS011;55114;52.052;5.238;2023-03-17T05:13:22;5.18;;;1.95;;
68284;SDS011;55114;52.052;5.238;2023-03-17T05:15:50;4.13;;;1.80;;
68284;SDS011;55114;52.052;5.238;2023-03-17T05:18:18;4.63;;;1.92;;
68284;SDS011;55114;52.052;5.238;2023-03-17T05:20:45;6.15;;;1.88;;
68284;SDS011;55114;52.052;5.238;2023-03-17T05:23:13;4.45;;;1.98;;
68284;SDS011;55114;52.052;5.238;2023-03-17T05:25:43;4.75;;;2.03;;
68284;SDS011;55114;52.052;5.238;2023-03-17T05:28:12;5.65;;;2.05;;
68284;SDS011;55114;52.052;5.238;2023-03-17T05:30:39;4.75;;;1.90;;
68284;SDS011;55114;52.052;5.238;2023-03-17T05:33:08;4.47;;;1.95;;
68284;SDS011;55114;52.052;5.238;2023-03-17T05:35:35;4.13;;;1.90;;
68284;SDS011;55114;52.052;5.238;2023-03-17T05:38:03;5.97;;;1.83;;
68284;SDS011;55114;52.052;5.238;2023-03-17T05:40:31;5.30;;;2.10;;
68284;SDS011;55114;52.052;5.238;2023-03-17T05:42:58;5.50;;;2.20;;
68284;SDS011;55114;52.052;5.238;2023-03-17T05:45:25;5.25;;;1.90;;
68284;SDS011;55114;52.052;5.238;2023-03-17T05:47:54;4.93;;;2.05;;
68284;SDS011;55114;52.052;5.238;2023-03-17T05:50:22;4.32;;;1.85;;
68284;SDS011;55114;52.052;5.238;2023-03-17T05:52:49;6.65;;;2.17;;
68284;SDS011;55114;52.052;5.238;2023-03-17T05:55:18;5.57;;;2.10;;
68284;SDS011;55114;52.052;5.238;2023-03-17T05:57:45;6.00;;;1.98;;
68284;SDS011;55114;52.052;5.238;2023-03-17T06:00:14;5.20;;;1.95;;
68284;SDS011;55114;52.052;5.238;2023-03-17T06:02:42;5.28;;;2.00;;
68284;SDS011;55114;52.052;5.238;2023-03-17T06:05:09;5.78;;;2.17;;
68284;SDS011;55114;52.052;5.238;2023-03-17T06:07:36;5.95;;;2.10;;
68284;SDS011;55114;52.052;5.238;2023-03-17T06:10:19;3.88;;;1.67;;
68284;SDS011;55114;52.052;5.238;2023-03-17T06:12:47;4.50;;;1.85;;
68284;SDS011;55114;52.052;5.238;2023-03-17T06:15:14;5.43;;;1.85;;
68284;SDS011;55114;52.052;5.238;2023-03-17T06:17:42;5.47;;;2.00;;
68284;SDS011;55114;52.052;5.238;2023-03-17T06:20:10;5.28;;;2.40;;
68284;SDS011;55114;52.052;5.238;2023-03-17T06:22:38;4.93;;;2.13;;
68284;SDS011;55114;52.052;5.238;2023-03-17T06:25:25;5.38;;;2.15;;
68284;SDS011;55114;52.052;5.238;2023-03-17T06:27:53;4.28;;;1.73;;
68284;SDS011;55114;52.052;5.238;2023-03-17T06:30:23;5.47;;;2.13;;
68284;SDS011;55114;52.052;5.238;2023-03-17T06:32:50;5.63;;;2.10;;
68284;SDS011;55114;52.052;5.238;2023-03-17T06:35:18;5.80;;;2.40;;
68284;SDS011;55114;52.052;5.238;2023-03-17T06:37:45;4.43;;;2.15;;
68284;SDS011;55114;52.052;5.238;2023-03-17T06:40:16;5.30;;;2.05;;
68284;SDS011;55114;52.052;5.238;2023-03-17T06:42:50;5.10;;;2.00;;
68284;SDS011;55114;52.052;5.238;2023-03-17T06:45:18;5.85;;;2.55;;
68284;SDS011;55114;52.052;5.238;2023-03-17T06:47:45;5.47;;;2.40;;
68284;SDS011;55114;52.052;5.238;2023-03-17T06:50:13;5.75;;;2.22;;
68284;SDS011;55114;52.052;5.238;2023-03-17T06:52:40;4.68;;;2.10;;
68284;SDS011;55114;52.052;5.238;2023-03-17T06:55:10;5.38;;;2.45;;
68284;SDS011;55114;52.052;5.238;2023-03-17T06:57:37;5.78;;;2.33;;
68284;SDS011;55114;52.052;5.238;2023-03-17T07:00:05;5.60;;;2.22;;
68284;SDS011;55114;52.052;5.238;2023-03-17T07:02:33;6.75;;;2.20;;
68284;SDS011;55114;52.052;5.238;2023-03-17T07:05:00;5.95;;;2.17;;
68284;SDS011;55114;52.052;5.238;2023-03-17T07:07:29;4.90;;;2.38;;
68284;SDS011;55114;52.052;5.238;2023-03-17T07:09:57;5.95;;;2.20;;
68284;SDS011;55114;52.052;5.238;2023-03-17T07:12:24;7.57;;;2.75;;
68284;SDS011;55114;52.052;5.238;2023-03-17T07:14:55;5.70;;;2.28;;
68284;SDS011;55114;52.052;5.238;2023-03-17T07:17:23;5.65;;;2.33;;
68284;SDS011;55114;52.052;5.238;2023-03-17T07:19:51;9.23;;;2.90;;
68284;SDS011;55114;52.052;5.238;2023-03-17T07:22:18;6.07;;;2.63;;
68284;SDS011;55114;52.052;5.238;2023-03-17T07:24:46;5.45;;;2.42;;
68284;SDS011;55114;52.052;5.238;2023-03-17T07:27:15;7.07;;;2.65;;
68284;SDS011;55114;52.052;5.238;2023-03-17T07:29:42;7.18;;;2.50;;
68284;SDS011;55114;52.052;5.238;2023-03-17T07:32:09;7.03;;;2.40;;
68284;SDS011;55114;52.052;5.238;2023-03-17T07:34:37;10.25;;;2.92;;
68284;SDS011;55114;52.052;5.238;2023-03-17T07:37:04;4.85;;;2.47;;
68284;SDS011;55114;52.052;5.238;2023-03-17T07:39:32;8.57;;;2.50;;
68284;SDS011;55114;52.052;5.238;2023-03-17T07:42:01;5.93;;;2.47;;
68284;SDS011;55114;52.052;5.238;2023-03-17T07:44:28;5.93;;;2.50;;
68284;SDS011;55114;52.052;5.238;2023-03-17T07:46:56;5.90;;;2.60;;
68284;SDS011;55114;52.052;5.238;2023-03-17T07:49:23;5.38;;;2.55;;
68284;SDS011;55114;52.052;5.238;2023-03-17T07:52:07;9.18;;;3.30;;
68284;SDS011;55114;52.052;5.238;2023-03-17T07:54:38;7.50;;;2.70;;
68284;SDS011;55114;52.052;5.238;2023-03-17T07:57:08;5.60;;;2.50;;
68284;SDS011;55114;52.052;5.238;2023-03-17T07:59:35;8.02;;;2.85;;
68284;SDS011;55114;52.052;5.238;2023-03-17T08:02:03;10.32;;;2.60;;
68284;SDS011;55114;52.052;5.238;2023-03-17T08:04:31;5.72;;;2.75;;
68284;SDS011;55114;52.052;5.238;2023-03-17T08:06:58;5.22;;;2.58;;
68284;SDS011;55114;52.052;5.238;2023-03-17T08:09:26;6.72;;;2.88;;
68284;SDS011;55114;52.052;5.238;2023-03-17T08:11:54;6.88;;;2.90;;
68284;SDS011;55114;52.052;5.238;2023-03-17T08:14:21;6.43;;;2.50;;
68284;SDS011;55114;52.052;5.238;2023-03-17T08:16:49;6.28;;;2.83;;
68284;SDS011;55114;52.052;5.238;2023-03-17T08:19:16;5.33;;;2.50;;
68284;SDS011;55114;52.052;5.238;2023-03-17T08:21:44;7.32;;;3.13;;
68284;SDS011;55114;52.052;5.238;2023-03-17T08:24:11;7.50;;;3.60;;
68284;SDS011;55114;52.052;5.238;2023-03-17T08:26:38;6.28;;;3.20;;
68284;SDS011;55114;52.052;5.238;2023-03-17T08:29:06;6.00;;;2.95;;
68284;SDS011;55114;52.052;5.238;2023-03-17T08:31:34;6.47;;;3.20;;
68284;SDS011;55114;52.052;5.238;2023-03-17T08:34:02;8.48;;;3.60;;
68284;SDS011;55114;52.052;5.238;2023-03-17T08:36:30;11.02;;;3.70;;
68284;SDS011;55114;52.052;5.238;2023-03-17T08:38:57;8.13;;;4.00;;
68284;SDS011;55114;52.052;5.238;2023-03-17T08:41:25;9.27;;;4.55;;
68284;SDS011;55114;52.052;5.238;2023-03-17T08:43:53;9.50;;;4.50;;
68284;SDS011;55114;52.052;5.238;2023-03-17T08:46:22;7.82;;;4.15;;
68284;SDS011;55114;52.052;5.238;2023-03-17T08:48:50;7.75;;;4.00;;
68284;SDS011;55114;52.052;5.238;2023-03-17T08:51:19;8.13;;;3.22;;
68284;SDS011;55114;52.052;5.238;2023-03-17T08:53:50;7.85;;;3.10;;
68284;SDS011;55114;52.052;5.238;2023-03-17T08:56:18;7.87;;;2.87;;
68284;SDS011;55114;52.052;5.238;2023-03-17T08:58:45;7.65;;;3.20;;
68284;SDS011;55114;52.052;5.238;2023-03-17T09:01:13;6.40;;;3.35;;
68284;SDS011;55114;52.052;5.238;2023-03-17T09:03:41;7.22;;;2.83;;
68284;SDS011;55114;52.052;5.238;2023-03-17T09:06:09;7.85;;;2.75;;
68284;SDS011;55114;52.052;5.238;2023-03-17T09:08:38;6.90;;;2.73;;
68284;SDS011;55114;52.052;5.238;2023-03-17T09:11:06;5.20;;;2.90;;
68284;SDS011;55114;52.052;5.238;2023-03-17T09:13:35;5.53;;;3.00;;
68284;SDS011;55114;52.052;5.238;2023-03-17T09:16:04;6.90;;;3.13;;
68284;SDS011;55114;52.052;5.238;2023-03-17T09:18:34;5.75;;;2.95;;
68284;SDS011;55114;52.052;5.238;2023-03-17T09:21:01;7.10;;;3.03;;
68284;SDS011;55114;52.052;5.238;2023-03-17T09:23:28;6.10;;;2.78;;
68284;SDS011;55114;52.052;5.238;2023-03-17T09:25:56;5.13;;;3.15;;
68284;SDS011;55114;52.052;5.238;2023-03-17T09:28:23;7.30;;;3.00;;
68284;SDS011;55114;52.052;5.238;2023-03-17T09:30:51;6.88;;;3.42;;
68284;SDS011;55114;52.052;5.238;2023-03-17T09:33:18;6.77;;;2.90;;
68284;SDS011;55114;52.052;5.238;2023-03-17T09:35:46;6.43;;;2.80;;
68284;SDS011;55114;52.052;5.238;2023-03-17T09:38:13;9.10;;;3.05;;
68284;SDS011;55114;52.052;5.238;2023-03-17T09:40:45;7.90;;;3.00;;
68284;SDS011;55114;52.052;5.238;2023-03-17T09:45:52;6.60;;;2.97;;
68284;SDS011;55114;52.052;5.238;2023-03-17T09:51:01;5.65;;;2.80;;
68284;SDS011;55114;52.052;5.238;2023-03-17T09:53:41;6.22;;;3.00;;
68284;SDS011;55114;52.052;5.238;2023-03-17T09:56:12;6.18;;;2.95;;
68284;SDS011;55114;52.052;5.238;2023-03-17T09:58:50;5.90;;;2.60;;
68284;SDS011;55114;52.052;5.238;2023-03-17T10:01:18;5.80;;;2.63;;
68284;SDS011;55114;52.052;5.238;2023-03-17T10:03:46;6.50;;;2.60;;
68284;SDS011;55114;52.052;5.238;2023-03-17T10:06:18;6.45;;;2.75;;
68284;SDS011;55114;52.052;5.238;2023-03-17T10:08:50;7.25;;;2.60;;
68284;SDS011;55114;52.052;5.238;2023-03-17T10:11:34;6.97;;;3.00;;
68284;SDS011;55114;52.052;5.238;2023-03-17T10:14:08;7.20;;;2.90;;
68284;SDS011;55114;52.052;5.238;2023-03-17T10:21:51;5.78;;;2.88;;
68284;SDS011;55114;52.052;5.238;2023-03-17T10:24:19;6.40;;;2.77;;
68284;SDS011;55114;52.052;5.238;2023-03-17T10:26:50;6.57;;;2.78;;
68284;SDS011;55114;52.052;5.238;2023-03-17T10:29:19;6.90;;;3.00;;
68284;SDS011;55114;52.052;5.238;2023-03-17T10:31:51;7.60;;;3.15;;
68284;SDS011;55114;52.052;5.238;2023-03-17T10:34:26;5.70;;;2.80;;
68284;SDS011;55114;52.052;5.238;2023-03-17T10:36:54;6.90;;;3.33;;
68284;SDS011;55114;52.052;5.238;2023-03-17T10:39:22;6.35;;;3.00;;
68284;SDS011;55114;52.052;5.238;2023-03-17T10:41:57;7.35;;;3.10;;
68284;SDS011;55114;52.052;5.238;2023-03-17T10:44:33;7.13;;;3.70;;
68284;SDS011;55114;52.052;5.238;2023-03-17T10:47:02;6.97;;;3.40;;
68284;SDS011;55114;52.052;5.238;2023-03-17T10:49:31;7.23;;;3.10;;
68284;SDS011;55114;52.052;5.238;2023-03-17T10:52:04;7.88;;;3.20;;
68284;SDS011;55114;52.052;5.238;2023-03-17T10:54:33;7.43;;;3.90;;
68284;SDS011;55114;52.052;5.238;2023-03-17T10:57:01;5.72;;;3.15;;
68284;SDS011;55114;52.052;5.238;2023-03-17T10:59:36;6.53;;;3.00;;
68284;SDS011;55114;52.052;5.238;2023-03-17T11:02:28;8.23;;;3.33;;
68284;SDS011;55114;52.052;5.238;2023-03-17T11:04:58;7.00;;;3.40;;
68284;SDS011;55114;52.052;5.238;2023-03-17T11:07:27;8.10;;;3.47;;
68284;SDS011;55114;52.052;5.238;2023-03-17T11:09:57;6.55;;;3.40;;
68284;SDS011;55114;52.052;5.238;2023-03-17T11:12:26;7.38;;;3.65;;
68284;SDS011;55114;52.052;5.238;2023-03-17T11:14:57;10.17;;;3.40;;
68284;SDS011;55114;52.052;5.238;2023-03-17T11:22:35;8.93;;;3.40;;
68284;SDS011;55114;52.052;5.238;2023-03-17T11:25:09;7.28;;;3.92;;
68284;SDS011;55114;52.052;5.238;2023-03-17T11:27:43;7.80;;;3.80;;
68284;SDS011;55114;52.052;5.238;2023-03-17T11:30:18;8.60;;;3.60;;
68284;SDS011;55114;52.052;5.238;2023-03-17T11:38:04;6.65;;;3.47;;
68284;SDS011;55114;52.052;5.238;2023-03-17T11:40:34;6.40;;;3.30;;
68284;SDS011;55114;52.052;5.238;2023-03-17T11:43:51;7.43;;;3.67;;
68284;SDS011;55114;52.052;5.238;2023-03-17T11:56:16;7.45;;;3.72;;
68284;SDS011;55114;52.052;5.238;2023-03-17T11:58:46;7.55;;;4.20;;
68284;SDS011;55114;52.052;5.238;2023-03-17T12:01:20;9.38;;;3.60;;
68284;SDS011;55114;52.052;5.238;2023-03-17T12:03:53;8.25;;;3.75;;
68284;SDS011;55114;52.052;5.238;2023-03-17T12:06:27;11.93;;;4.83;;
68284;SDS011;55114;52.052;5.238;2023-03-17T12:08:57;6.57;;;3.90;;
68284;SDS011;55114;52.052;5.238;2023-03-17T12:11:25;6.70;;;4.00;;
68284;SDS011;55114;52.052;5.238;2023-03-17T12:14:04;6.72;;;3.85;;
68284;SDS011;55114;52.052;5.238;2023-03-17T12:16:56;7.68;;;4.35;;
68284;SDS011;55114;52.052;5.238;2023-03-17T12:19:28;8.13;;;4.00;;
68284;SDS011;55114;52.052;5.238;2023-03-17T12:22:04;7.75;;;3.88;;
68284;SDS011;55114;52.052;5.238;2023-03-17T12:24:34;6.68;;;3.92;;
68284;SDS011;55114;52.052;5.238;2023-03-17T12:27:04;7.70;;;3.80;;
68284;SDS011;55114;52.052;5.238;2023-03-17T12:32:23;7.20;;;3.80;;
68284;SDS011;55114;52.052;5.238;2023-03-17T12:34:56;8.80;;;4.40;;
68284;SDS011;55114;52.052;5.238;2023-03-17T12:37:25;7.97;;;4.10;;
68284;SDS011;55114;52.052;5.238;2023-03-17T12:40:00;9.45;;;4.18;;
68284;SDS011;55114;52.052;5.238;2023-03-17T12:47:38;7.55;;;3.95;;
68284;SDS011;55114;52.052;5.238;2023-03-17T12:52:49;9.05;;;3.65;;
68284;SDS011;55114;52.052;5.238;2023-03-17T12:55:23;6.45;;;4.20;;
68284;SDS011;55114;52.052;5.238;2023-03-17T12:57:59;7.90;;;4.50;;
68284;SDS011;55114;52.052;5.238;2023-03-17T13:00:31;9.73;;;4.13;;
68284;SDS011;55114;52.052;5.238;2023-03-17T13:05:49;7.38;;;4.28;;
68284;SDS011;55114;52.052;5.238;2023-03-17T13:08:27;9.88;;;4.20;;
68284;SDS011;55114;52.052;5.238;2023-03-17T13:13:44;7.93;;;3.95;;
68284;SDS011;55114;52.052;5.238;2023-03-17T13:16:26;8.75;;;4.20;;
68284;SDS011;55114;52.052;5.238;2023-03-17T13:25:04;8.23;;;4.73;;
68284;SDS011;55114;52.052;5.238;2023-03-17T13:30:40;8.57;;;4.22;;
68284;SDS011;55114;52.052;5.238;2023-03-17T13:41:10;7.28;;;4.10;;
68284;SDS011;55114;52.052;5.238;2023-03-17T13:43:45;7.70;;;4.13;;
68284;SDS011;55114;52.052;5.238;2023-03-17T13:46:22;7.47;;;4.00;;
68284;SDS011;55114;52.052;5.238;2023-03-17T13:48:52;8.27;;;4.70;;
68284;SDS011;55114;52.052;5.238;2023-03-17T13:51:24;7.00;;;3.90;;
68284;SDS011;55114;52.052;5.238;2023-03-17T14:01:40;8.63;;;4.30;;
68284;SDS011;55114;52.052;5.238;2023-03-17T14:04:15;7.73;;;4.20;;
68284;SDS011;55114;52.052;5.238;2023-03-17T14:06:43;7.75;;;4.00;;
68284;SDS011;55114;52.052;5.238;2023-03-17T14:09:26;7.78;;;4.03;;
68284;SDS011;55114;52.052;5.238;2023-03-17T14:11:55;7.82;;;3.90;;
68284;SDS011;55114;52.052;5.238;2023-03-17T14:14:36;9.43;;;5.22;;
68284;SDS011;55114;52.052;5.238;2023-03-17T14:17:14;8.87;;;4.23;;
68284;SDS011;55114;52.052;5.238;2023-03-17T14:19:57;7.90;;;4.38;;
68284;SDS011;55114;52.052;5.238;2023-03-17T14:22:25;9.20;;;4.40;;
68284;SDS011;55114;52.052;5.238;2023-03-17T14:24:53;7.15;;;4.25;;
68284;SDS011;55114;52.052;5.238;2023-03-17T14:27:21;8.05;;;4.40;;
68284;SDS011;55114;52.052;5.238;2023-03-17T14:29:49;12.47;;;4.87;;
68284;SDS011;55114;52.052;5.238;2023-03-17T14:32:19;7.65;;;4.50;;
68284;SDS011;55114;52.052;5.238;2023-03-17T14:34:51;7.15;;;4.30;;
68284;SDS011;55114;52.052;5.238;2023-03-17T14:37:21;9.40;;;4.35;;
68284;SDS011;55114;52.052;5.238;2023-03-17T14:39:49;8.48;;;4.70;;
68284;SDS011;55114;52.052;5.238;2023-03-17T14:42:27;8.93;;;4.80;;
68284;SDS011;55114;52.052;5.238;2023-03-17T14:45:02;7.95;;;4.50;;
68284;SDS011;55114;52.052;5.238;2023-03-17T14:47:31;7.45;;;4.68;;
68284;SDS011;55114;52.052;5.238;2023-03-17T14:50:02;9.07;;;4.53;;
68284;SDS011;55114;52.052;5.238;2023-03-17T14:52:31;7.82;;;4.28;;
68284;SDS011;55114;52.052;5.238;2023-03-17T14:55:00;7.50;;;4.43;;
68284;SDS011;55114;52.052;5.238;2023-03-17T14:57:30;8.18;;;4.35;;
68284;SDS011;55114;52.052;5.238;2023-03-17T15:00:14;10.20;;;4.13;;
68284;SDS011;55114;52.052;5.238;2023-03-17T15:02:41;9.80;;;4.40;;
68284;SDS011;55114;52.052;5.238;2023-03-17T15:05:35;6.80;;;4.30;;
68284;SDS011;55114;52.052;5.238;2023-03-17T15:08:26;10.47;;;4.47;;
68284;SDS011;55114;52.052;5.238;2023-03-17T15:10:53;8.77;;;4.20;;
68284;SDS011;55114;52.052;5.238;2023-03-17T15:13:24;8.85;;;4.45;;
68284;SDS011;55114;52.052;5.238;2023-03-17T15:15:51;7.35;;;4.32;;
68284;SDS011;55114;52.052;5.238;2023-03-17T15:18:18;9.63;;;4.40;;
68284;SDS011;55114;52.052;5.238;2023-03-17T15:20:46;7.20;;;4.20;;
68284;SDS011;55114;52.052;5.238;2023-03-17T15:23:14;9.30;;;3.97;;
68284;SDS011;55114;52.052;5.238;2023-03-17T15:25:44;10.38;;;4.95;;
68284;SDS011;55114;52.052;5.238;2023-03-17T15:28:14;6.90;;;4.30;;
68284;SDS011;55114;52.052;5.238;2023-03-17T15:30:42;11.50;;;4.80;;
68284;SDS011;55114;52.052;5.238;2023-03-17T15:35:47;9.43;;;4.75;;
68284;SDS011;55114;52.052;5.238;2023-03-17T15:38:15;9.18;;;5.00;;
68284;SDS011;55114;52.052;5.238;2023-03-17T15:40:42;10.73;;;4.50;;
68284;SDS011;55114;52.052;5.238;2023-03-17T15:43:16;9.68;;;4.53;;
68284;SDS011;55114;52.052;5.238;2023-03-17T15:45:44;8.00;;;4.63;;
68284;SDS011;55114;52.052;5.238;2023-03-17T15:48:22;8.02;;;4.15;;
68284;SDS011;55114;52.052;5.238;2023-03-17T15:50:50;10.02;;;4.78;;
68284;SDS011;55114;52.052;5.238;2023-03-17T15:53:18;9.15;;;4.70;;
68284;SDS011;55114;52.052;5.238;2023-03-17T15:55:46;8.10;;;4.50;;
68284;SDS011;55114;52.052;5.238;2023-03-17T15:58:13;9.03;;;4.60;;
68284;SDS011;55114;52.052;5.238;2023-03-17T16:00:41;8.30;;;4.40;;
68284;SDS011;55114;52.052;5.238;2023-03-17T16:03:17;8.60;;;5.05;;
68284;SDS011;55114;52.052;5.238;2023-03-17T16:05:47;9.02;;;4.60;;
68284;SDS011;55114;52.052;5.238;2023-03-17T16:08:14;7.63;;;4.32;;
68284;SDS011;55114;52.052;5.238;2023-03-17T16:10:43;8.43;;;4.33;;
68284;SDS011;55114;52.052;5.238;2023-03-17T16:13:11;8.25;;;4.68;;
68284;SDS011;55114;52.052;5.238;2023-03-17T16:15:39;8.63;;;4.05;;
68284;SDS011;55114;52.052;5.238;2023-03-17T16:18:12;7.28;;;4.13;;
68284;SDS011;55114;52.052;5.238;2023-03-17T16:20:44;7.40;;;4.25;;
68284;SDS011;55114;52.052;5.238;2023-03-17T16:23:16;8.00;;;4.43;;
68284;SDS011;55114;52.052;5.238;2023-03-17T16:25:44;8.57;;;4.10;;